Farm Ridge, Illinois
Current Conditions -  °F | °C
As of 7:55 AM on Thursday 30 Oct 2014 (Local Time) from KVYS Reporting Station
Clear Clear  
Wind Chill: 30°   Ceiling: Unl
Heat Index: 34°   Visibility: 10mi
Dew Point: 32°   Wind: 5mph
Humidity: 92%   Direction: 170°S
Pressure: 30.14"   Gusts: NA
Location:  41.2419°N, 88.7998°W
Report Text: KVYS 301255Z AUTO 17004KT 10SM CLR 01/00 A3014 RMK AO2 T00120000
Loading
Personal Weather Stations






























Interactive Weather Map New forecast layout! Learn more

10-Day Weather Forecast

Advertisements
Track Severe Weather on mobile